createdAt,value
2023-05-06T00:00:08.438Z,82.28
2023-05-06T00:02:55.505Z,82.40
2023-05-06T00:05:43.383Z,82.29
2023-05-06T00:08:31.149Z,81.97
2023-05-06T00:11:18.036Z,82.23
2023-05-06T00:14:05.052Z,82.38
2023-05-06T00:16:51.974Z,82.13
2023-05-06T00:19:38.868Z,82.07
2023-05-06T00:22:26.005Z,82.11
2023-05-06T00:25:12.967Z,82.32
2023-05-06T00:27:59.807Z,81.48
2023-05-06T00:30:46.771Z,81.74
2023-05-06T00:33:33.637Z,80.34
2023-05-06T00:36:21.480Z,80.78
2023-05-06T00:39:09.824Z,82.04
2023-05-06T00:42:02.309Z,85.43
2023-05-06T00:44:52.581Z,87.23
2023-05-06T00:47:40.535Z,89.50
2023-05-06T00:50:28.576Z,91.44
2023-05-06T00:53:15.751Z,91.94
2023-05-06T00:56:03.936Z,91.56
2023-05-06T00:58:51.458Z,91.83
2023-05-06T01:01:38.787Z,92.62
2023-05-06T01:04:26.027Z,92.31
2023-05-06T01:07:37.645Z,92.28
2023-05-06T01:10:47.382Z,92.09
2023-05-06T01:13:50.055Z,92.84
2023-05-06T01:16:39.920Z,93.97
2023-05-06T01:19:38.925Z,95.71
2023-05-06T01:22:27.125Z,95.49
2023-05-06T01:25:21.715Z,96.27
2023-05-06T01:28:12.770Z,96.79
2023-05-06T01:31:03.825Z,95.21
2023-05-06T01:33:59.107Z,94.93
2023-05-06T01:36:53.646Z,95.30
2023-05-06T01:39:42.031Z,95.33
2023-05-06T01:42:31.266Z,95.58
2023-05-06T01:45:19.904Z,96.48
2023-05-06T01:48:07.213Z,96.80
2023-05-06T01:50:54.455Z,96.33
2023-05-06T01:53:41.409Z,97.18
2023-05-06T01:56:32.088Z,97.24
2023-05-06T01:59:19.008Z,98.51
2023-05-06T02:02:06.849Z,99.40
2023-05-06T02:04:53.953Z,100.00
2023-05-06T02:07:40.929Z,99.97
2023-05-06T02:10:27.788Z,99.83
2023-05-06T02:13:14.732Z,100.00
2023-05-06T02:16:02.294Z,100.00
2023-05-06T02:18:49.447Z,100.00
2023-05-06T02:21:36.582Z,100.00
2023-05-06T02:24:23.826Z,100.00
2023-05-06T02:27:10.911Z,100.00
2023-05-06T02:29:59.332Z,100.00
2023-05-06T02:32:47.218Z,99.46
2023-05-06T02:35:34.222Z,99.36
2023-05-06T02:38:21.546Z,100.00
2023-05-06T02:41:08.543Z,100.00
2023-05-06T02:43:55.476Z,100.00
2023-05-06T02:46:43.634Z,100.00
2023-05-06T02:49:30.741Z,100.00
2023-05-06T02:52:17.652Z,100.00
2023-05-06T02:55:05.750Z,99.68
2023-05-06T02:57:52.677Z,99.07
2023-05-06T03:00:39.617Z,98.82
2023-05-06T03:03:26.640Z,98.56
2023-05-06T03:06:13.499Z,98.14
2023-05-06T03:09:00.364Z,98.31
2023-05-06T03:11:47.348Z,98.36
2023-05-06T03:14:34.219Z,100.00
2023-05-06T03:17:21.108Z,100.00
2023-05-06T03:20:08.803Z,100.00
2023-05-06T03:22:56.501Z,100.00
2023-05-06T03:25:43.392Z,100.00
2023-05-06T03:28:30.839Z,100.00
2023-05-06T03:31:17.754Z,100.00
2023-05-06T03:34:04.624Z,100.00
2023-05-06T03:36:51.531Z,100.00
2023-05-06T03:39:38.383Z,100.00
2023-05-06T03:42:25.334Z,100.00
2023-05-06T03:45:12.554Z,100.00
2023-05-06T03:47:59.608Z,100.00
2023-05-06T03:50:46.769Z,100.00
2023-05-06T03:53:33.745Z,100.00
2023-05-06T03:56:21.881Z,100.00
2023-05-06T03:59:09.053Z,100.00
2023-05-06T04:01:56.346Z,100.00
2023-05-06T04:04:43.334Z,100.00
2023-05-06T04:07:31.065Z,100.00
2023-05-06T04:10:17.973Z,100.00
2023-05-06T04:13:04.879Z,100.00
2023-05-06T04:15:52.455Z,100.00
2023-05-06T04:18:39.862Z,100.00
2023-05-06T04:21:26.922Z,99.99
2023-05-06T04:24:15.902Z,100.00
2023-05-06T04:27:03.466Z,99.32
2023-05-06T04:29:50.851Z,98.98
2023-05-06T04:32:38.572Z,99.17
2023-05-06T04:35:25.593Z,98.44
2023-05-06T04:38:15.010Z,98.92
2023-05-06T04:41:01.832Z,98.11
2023-05-06T04:43:48.774Z,97.61
2023-05-06T04:46:36.068Z,97.10
2023-05-06T04:49:22.984Z,96.61
2023-05-06T04:52:09.829Z,96.80
2023-05-06T04:54:56.674Z,97.12
2023-05-06T04:57:43.808Z,97.02
2023-05-06T05:00:30.865Z,97.57
2023-05-06T05:03:17.841Z,97.59
2023-05-06T05:06:05.107Z,98.11
2023-05-06T05:08:52.155Z,98.46
2023-05-06T05:11:39.641Z,98.77
2023-05-06T05:14:26.474Z,98.43
2023-05-06T05:17:13.563Z,98.96
2023-05-06T05:20:00.787Z,98.91
2023-05-06T05:22:47.684Z,98.86
2023-05-06T05:25:34.501Z,97.44
2023-05-06T05:28:21.406Z,97.26
2023-05-06T05:31:10.188Z,96.79
2023-05-06T05:33:57.558Z,95.90
2023-05-06T05:36:44.462Z,96.23
2023-05-06T05:39:31.398Z,94.55
2023-05-06T05:42:18.296Z,95.14
2023-05-06T05:45:05.666Z,94.73
2023-05-06T05:47:54.112Z,94.47
2023-05-06T05:50:41.149Z,93.68
2023-05-06T05:53:28.263Z,92.45
2023-05-06T05:56:15.420Z,92.35
2023-05-06T05:59:02.486Z,91.16
2023-05-06T06:01:49.369Z,91.17
2023-05-06T06:04:37.576Z,90.85
2023-05-06T06:07:24.676Z,90.30
2023-05-06T06:10:13.368Z,90.89
2023-05-06T06:13:00.430Z,89.78
2023-05-06T06:15:47.389Z,89.58
2023-05-06T06:18:34.331Z,88.83
2023-05-06T06:21:21.239Z,88.30
2023-05-06T06:24:08.192Z,87.33
2023-05-06T06:26:55.167Z,87.38
2023-05-06T06:29:42.021Z,86.22
2023-05-06T06:32:28.926Z,86.84
2023-05-06T06:35:16.048Z,85.22
2023-05-06T06:38:03.051Z,86.33
2023-05-06T06:40:50.194Z,85.42
2023-05-06T06:43:37.121Z,83.77
2023-05-06T06:46:24.169Z,83.10
2023-05-06T06:49:11.105Z,81.32
2023-05-06T06:51:57.966Z,81.29
2023-05-06T06:54:44.859Z,81.58
2023-05-06T06:57:32.756Z,79.98
2023-05-06T07:00:19.647Z,80.84
2023-05-06T07:03:06.851Z,80.61
2023-05-06T07:05:53.771Z,80.98
2023-05-06T07:08:40.796Z,81.57
2023-05-06T07:11:27.638Z,81.37
2023-05-06T07:14:14.543Z,81.31
2023-05-06T07:17:01.520Z,80.57
2023-05-06T07:19:48.497Z,80.95
2023-05-06T07:22:35.824Z,80.11
2023-05-06T07:25:22.849Z,79.63
2023-05-06T07:28:09.760Z,76.76
2023-05-06T07:30:56.699Z,78.62
2023-05-06T07:33:43.543Z,79.67
2023-05-06T07:36:36.112Z,80.11
2023-05-06T07:39:24.170Z,80.35
2023-05-06T07:42:13.170Z,78.82
2023-05-06T07:45:00.137Z,80.10
2023-05-06T07:47:47.147Z,78.70
2023-05-06T07:50:34.474Z,77.94
2023-05-06T07:53:21.511Z,78.63
2023-05-06T07:56:08.354Z,78.69
2023-05-06T07:58:55.353Z,79.13
2023-05-06T08:01:42.302Z,78.86
2023-05-06T08:04:29.219Z,77.53
2023-05-06T08:07:16.122Z,77.75
2023-05-06T08:10:03.518Z,76.81
2023-05-06T08:12:50.592Z,76.89
2023-05-06T08:15:38.235Z,77.07
2023-05-06T08:18:25.136Z,77.22
2023-05-06T08:21:12.094Z,73.04
2023-05-06T08:23:58.915Z,73.43
2023-05-06T08:26:45.829Z,73.59
2023-05-06T08:29:32.697Z,73.44
2023-05-06T08:32:19.788Z,73.00
2023-05-06T08:35:07.296Z,72.48
2023-05-06T08:37:54.167Z,69.54
2023-05-06T08:40:44.336Z,69.75
2023-05-06T08:43:40.694Z,69.82
2023-05-06T08:46:30.789Z,72.83
2023-05-06T08:49:17.661Z,70.86
2023-05-06T08:52:06.281Z,70.13
2023-05-06T08:54:54.822Z,70.57
2023-05-06T08:57:43.280Z,70.11
2023-05-06T09:00:30.579Z,70.73
2023-05-06T09:03:17.572Z,71.47
2023-05-06T09:06:05.235Z,71.24
2023-05-06T09:08:52.114Z,72.32
2023-05-06T09:11:39.062Z,70.26
2023-05-06T09:14:25.860Z,71.02
2023-05-06T09:17:28.395Z,71.39
2023-05-06T09:20:15.595Z,68.47
2023-05-06T09:23:03.061Z,70.23
2023-05-06T09:25:51.151Z,67.14
2023-05-06T09:28:38.122Z,67.49
2023-05-06T09:31:26.219Z,66.79
2023-05-06T09:34:14.635Z,68.56
2023-05-06T09:37:02.347Z,67.40
2023-05-06T09:39:53.708Z,67.92
2023-05-06T09:42:43.577Z,67.90
2023-05-06T09:45:30.878Z,69.14
2023-05-06T09:48:17.719Z,68.60
2023-05-06T09:51:07.633Z,69.11
2023-05-06T09:53:56.621Z,65.43
2023-05-06T09:56:44.495Z,64.81
2023-05-06T09:59:32.601Z,68.75
2023-05-06T10:02:20.663Z,66.49
2023-05-06T10:05:09.770Z,67.14
2023-05-06T10:07:58.288Z,65.25
2023-05-06T10:10:48.729Z,64.01
2023-05-06T10:13:37.096Z,67.02
2023-05-06T10:16:24.125Z,65.77
2023-05-06T10:19:12.228Z,65.68
2023-05-06T10:22:19.395Z,66.57
2023-05-06T10:25:30.053Z,67.46
2023-05-06T10:28:19.563Z,66.77
2023-05-06T10:31:17.008Z,69.43
2023-05-06T10:34:07.733Z,68.81
2023-05-06T10:36:58.139Z,68.80
2023-05-06T10:39:45.885Z,70.68
2023-05-06T10:42:35.825Z,72.57
2023-05-06T10:45:22.898Z,70.27
2023-05-06T10:48:09.953Z,73.01
2023-05-06T10:51:18.538Z,76.89
2023-05-06T10:54:09.451Z,72.78
2023-05-06T10:56:58.953Z,72.25
2023-05-06T10:59:47.565Z,73.01
2023-05-06T11:02:34.605Z,73.22
2023-05-06T11:05:22.797Z,74.31
2023-05-06T11:08:10.493Z,74.89
2023-05-06T11:10:57.479Z,74.44
2023-05-06T11:13:44.341Z,71.08
2023-05-06T11:16:48.898Z,67.89
2023-05-06T11:19:37.707Z,65.55
2023-05-06T11:22:41.086Z,67.42
2023-05-06T11:25:43.306Z,66.90
2023-05-06T11:28:30.382Z,65.18
2023-05-06T11:31:17.615Z,66.09
2023-05-06T11:34:08.965Z,64.52
2023-05-06T11:36:58.869Z,66.35
2023-05-06T11:39:49.239Z,64.44
2023-05-06T11:42:36.255Z,62.72
2023-05-06T11:45:23.214Z,65.97
2023-05-06T11:48:17.721Z,72.88
2023-05-06T11:51:04.616Z,77.68
2023-05-06T11:53:53.147Z,80.45
2023-05-06T11:56:50.909Z,82.35
2023-05-06T11:59:39.508Z,83.47
2023-05-06T12:02:26.451Z,83.59
2023-05-06T12:05:13.767Z,84.68
2023-05-06T12:08:00.949Z,79.99
2023-05-06T12:10:47.923Z,82.45
2023-05-06T12:13:36.847Z,80.90
2023-05-06T12:16:25.698Z,80.84
2023-05-06T12:19:16.392Z,76.94
2023-05-06T12:22:24.716Z,74.01
2023-05-06T12:25:15.624Z,74.07
2023-05-06T12:28:23.640Z,72.55
2023-05-06T12:31:23.302Z,71.80
2023-05-06T12:34:10.731Z,69.62
2023-05-06T12:36:57.766Z,69.75
2023-05-06T12:39:44.629Z,72.27
2023-05-06T12:42:31.663Z,70.57
2023-05-06T12:45:18.645Z,71.84
2023-05-06T12:48:06.861Z,73.15
2023-05-06T12:50:53.816Z,70.96
2023-05-06T12:53:41.015Z,71.69
2023-05-06T12:56:27.838Z,69.63
2023-05-06T12:59:14.897Z,66.62
2023-05-06T13:02:02.074Z,69.28
2023-05-06T13:04:49.500Z,68.68
2023-05-06T13:07:36.367Z,69.50
2023-05-06T13:10:23.354Z,69.35
2023-05-06T13:13:10.241Z,69.17
2023-05-06T13:15:57.186Z,69.54
2023-05-06T13:18:44.050Z,68.97
2023-05-06T13:21:32.061Z,67.48
2023-05-06T13:24:19.170Z,67.01
2023-05-06T13:27:06.110Z,68.24
2023-05-06T13:29:52.958Z,69.80
2023-05-06T13:32:39.878Z,70.72
2023-05-06T13:35:26.742Z,68.16
2023-05-06T13:38:13.556Z,69.53
2023-05-06T13:41:00.398Z,66.61
2023-05-06T13:43:47.236Z,63.55
2023-05-06T13:46:34.414Z,64.82
2023-05-06T13:49:21.326Z,65.94
2023-05-06T13:52:08.507Z,65.33
2023-05-06T13:54:56.791Z,63.13
2023-05-06T13:57:43.748Z,64.44
2023-05-06T14:00:30.904Z,63.74
2023-05-06T14:03:17.804Z,63.14
2023-05-06T14:06:04.997Z,60.58
2023-05-06T14:08:51.824Z,61.67
2023-05-06T14:11:38.730Z,62.22
2023-05-06T14:14:25.667Z,61.72
2023-05-06T14:17:12.532Z,60.72
2023-05-06T14:19:59.381Z,59.95
2023-05-06T14:22:46.280Z,62.09
2023-05-06T14:25:33.549Z,60.67
2023-05-06T14:28:20.559Z,58.86
2023-05-06T14:31:07.451Z,59.27
2023-05-06T14:33:54.453Z,60.50
2023-05-06T14:36:41.323Z,58.35
2023-05-06T14:39:28.258Z,60.98
2023-05-06T14:42:15.252Z,58.80
2023-05-06T14:45:02.448Z,58.67
2023-05-06T14:47:49.317Z,59.83
2023-05-06T14:50:36.238Z,61.81
2023-05-06T14:53:23.061Z,60.61
2023-05-06T14:56:10.741Z,59.66
2023-05-06T14:58:57.746Z,59.64
2023-05-06T15:01:44.669Z,60.04
2023-05-06T15:04:31.636Z,61.85
2023-05-06T15:07:18.584Z,61.08
2023-05-06T15:10:05.782Z,60.74
2023-05-06T15:12:52.743Z,62.30
2023-05-06T15:15:39.670Z,62.42
2023-05-06T15:18:26.567Z,62.30
2023-05-06T15:21:13.858Z,62.88
2023-05-06T15:24:01.651Z,63.17
2023-05-06T15:26:48.588Z,62.29
2023-05-06T15:29:37.850Z,63.24
2023-05-06T15:32:24.724Z,61.91
2023-05-06T15:35:12.098Z,62.23
2023-05-06T15:37:59.308Z,64.63
2023-05-06T15:40:50.641Z,63.94
2023-05-06T15:43:38.775Z,63.49
2023-05-06T15:46:27.377Z,64.26
2023-05-06T15:49:45.448Z,63.45
2023-05-06T15:52:21.259Z,65.88
2023-05-06T15:55:09.906Z,66.57
2023-05-06T15:57:59.836Z,67.90
2023-05-06T16:00:47.689Z,68.78
2023-05-06T16:03:36.300Z,68.59
2023-05-06T16:06:23.257Z,69.26
2023-05-06T16:09:10.476Z,68.92
2023-05-06T16:11:57.331Z,69.08
2023-05-06T16:14:44.526Z,69.80
2023-05-06T16:17:32.927Z,70.69
2023-05-06T16:20:19.917Z,70.86
2023-05-06T16:23:07.332Z,70.68
2023-05-06T16:25:54.811Z,71.14
2023-05-06T16:28:41.650Z,71.31
2023-05-06T16:31:28.724Z,72.14
2023-05-06T16:34:15.774Z,72.62
2023-05-06T16:37:02.711Z,72.36
2023-05-06T16:39:49.629Z,72.71
2023-05-06T16:42:36.491Z,73.88
2023-05-06T16:45:23.426Z,74.29
2023-05-06T16:48:10.404Z,75.29
2023-05-06T16:50:58.221Z,75.08
2023-05-06T16:53:45.107Z,75.26
2023-05-06T16:56:44.163Z,75.00
2023-05-06T16:59:38.167Z,75.28
2023-05-06T17:02:25.167Z,75.67
2023-05-06T17:05:12.086Z,76.29
2023-05-06T17:07:59.286Z,76.55
2023-05-06T17:10:46.249Z,77.27
2023-05-06T17:13:33.541Z,77.71
2023-05-06T17:16:21.549Z,77.73
2023-05-06T17:19:08.700Z,78.50
2023-05-06T17:21:58.265Z,78.46
2023-05-06T17:24:45.118Z,78.51
2023-05-06T17:27:32.080Z,78.63
2023-05-06T17:30:20.781Z,79.03
2023-05-06T17:33:07.791Z,78.98
2023-05-06T17:35:54.652Z,78.78
2023-05-06T17:38:41.483Z,78.74
2023-05-06T17:41:28.360Z,78.66
2023-05-06T17:44:17.595Z,78.59
2023-05-06T17:47:04.476Z,79.08
2023-05-06T17:49:54.562Z,79.14
2023-05-06T17:52:41.638Z,79.92
2023-05-06T17:55:28.564Z,80.30
2023-05-06T17:58:16.985Z,80.77
2023-05-06T18:01:04.111Z,80.45
2023-05-06T18:03:51.197Z,80.55
2023-05-06T18:06:38.660Z,80.60
2023-05-06T18:09:25.577Z,80.94
2023-05-06T18:12:15.777Z,80.89
2023-05-06T18:15:02.870Z,81.61
2023-05-06T18:17:50.174Z,82.63
2023-05-06T18:20:37.068Z,83.01
2023-05-06T18:23:24.081Z,83.55
2023-05-06T18:26:11.185Z,83.64
2023-05-06T18:28:58.172Z,84.50
2023-05-06T18:31:45.134Z,84.39
2023-05-06T18:34:32.106Z,85.11
2023-05-06T18:37:18.930Z,85.22
2023-05-06T18:40:08.982Z,85.70
2023-05-06T18:42:56.752Z,86.41
2023-05-06T18:45:43.830Z,86.57
2023-05-06T18:48:32.042Z,87.33
2023-05-06T18:51:19.038Z,87.20
2023-05-06T18:54:07.044Z,87.48
2023-05-06T18:56:55.029Z,87.57
2023-05-06T18:59:42.034Z,87.00
2023-05-06T19:02:28.958Z,87.44
2023-05-06T19:05:15.848Z,87.59
2023-05-06T19:08:05.145Z,87.55
2023-05-06T19:10:52.038Z,88.28
2023-05-06T19:13:38.967Z,88.62
2023-05-06T19:16:26.006Z,88.51
2023-05-06T19:19:12.907Z,89.31
2023-05-06T19:22:01.730Z,89.41
2023-05-06T19:24:48.681Z,88.68
2023-05-06T19:27:35.513Z,88.81
2023-05-06T19:30:22.380Z,88.77
2023-05-06T19:33:09.342Z,88.54
2023-05-06T19:35:56.285Z,88.83
2023-05-06T19:38:43.126Z,88.20
2023-05-06T19:41:30.003Z,87.76
2023-05-06T19:44:16.840Z,87.95
2023-05-06T19:47:03.798Z,88.23
2023-05-06T19:49:53.716Z,88.24
2023-05-06T19:52:40.764Z,88.06
2023-05-06T19:55:27.638Z,88.32
2023-05-06T19:58:17.175Z,88.62
2023-05-06T20:01:04.342Z,89.46
2023-05-06T20:03:52.690Z,90.05
2023-05-06T20:06:39.777Z,91.15
2023-05-06T20:09:26.705Z,91.48
2023-05-06T20:12:13.549Z,91.69
2023-05-06T20:15:00.751Z,91.74
2023-05-06T20:17:47.662Z,91.91
2023-05-06T20:20:34.655Z,91.19
2023-05-06T20:23:21.498Z,91.71
2023-05-06T20:26:08.400Z,91.55
2023-05-06T20:28:55.332Z,92.09
2023-05-06T20:31:45.832Z,91.90
2023-05-06T20:34:32.794Z,92.59
2023-05-06T20:37:20.122Z,93.30
2023-05-06T20:40:07.930Z,93.55
2023-05-06T20:42:54.878Z,94.34
2023-05-06T20:45:41.722Z,94.85
2023-05-06T20:48:30.630Z,94.83
2023-05-06T20:51:17.913Z,94.97
2023-05-06T20:54:04.816Z,95.09
2023-05-06T20:56:51.672Z,94.67
2023-05-06T20:59:38.803Z,94.81
2023-05-06T21:02:29.166Z,95.84
2023-05-06T21:05:16.344Z,95.68
2023-05-06T21:08:03.245Z,96.07
2023-05-06T21:10:50.180Z,96.33
2023-05-06T21:13:37.109Z,97.40
2023-05-06T21:16:23.997Z,97.78
2023-05-06T21:19:10.878Z,97.63
2023-05-06T21:21:58.040Z,97.27
2023-05-06T21:24:44.910Z,96.59
2023-05-06T21:27:31.963Z,96.72
2023-05-06T21:30:24.046Z,96.42
2023-05-06T21:33:11.401Z,96.75
2023-05-06T21:35:58.667Z,96.86
2023-05-06T21:38:48.496Z,97.38
2023-05-06T21:41:36.151Z,97.44
2023-05-06T21:44:23.057Z,97.30
2023-05-06T21:47:09.903Z,98.24
2023-05-06T21:49:56.815Z,98.40
2023-05-06T21:52:43.770Z,98.99
2023-05-06T21:55:30.635Z,100.00
2023-05-06T21:58:17.524Z,100.00
2023-05-06T22:01:04.552Z,100.00
2023-05-06T22:03:52.027Z,100.00
2023-05-06T22:06:39.598Z,100.00
2023-05-06T22:09:26.616Z,100.00
2023-05-06T22:12:15.415Z,100.00
2023-05-06T22:15:02.439Z,100.00
2023-05-06T22:17:49.514Z,100.00
2023-05-06T22:20:37.571Z,100.00
2023-05-06T22:23:25.500Z,100.00
2023-05-06T22:26:12.418Z,100.00
2023-05-06T22:28:59.465Z,100.00
2023-05-06T22:31:46.606Z,100.00
2023-05-06T22:34:33.472Z,100.00
2023-05-06T22:37:20.602Z,100.00
2023-05-06T22:40:08.023Z,100.00
2023-05-06T22:42:55.733Z,100.00
2023-05-06T22:45:43.156Z,100.00
2023-05-06T22:48:31.800Z,100.00
2023-05-06T22:51:20.166Z,100.00
2023-05-06T22:54:06.976Z,100.00
2023-05-06T22:56:53.948Z,100.00
2023-05-06T22:59:40.918Z,100.00
2023-05-06T23:02:28.507Z,100.00
2023-05-06T23:05:15.400Z,100.00
2023-05-06T23:08:02.317Z,100.00
2023-05-06T23:10:49.123Z,100.00
2023-05-06T23:13:36.589Z,100.00
2023-05-06T23:16:23.552Z,100.00
2023-05-06T23:19:10.837Z,100.00
2023-05-06T23:21:57.704Z,100.00
2023-05-06T23:24:44.923Z,100.00
2023-05-06T23:27:31.764Z,100.00
2023-05-06T23:30:18.643Z,100.00
2023-05-06T23:33:06.946Z,100.00
2023-05-06T23:35:53.952Z,100.00
2023-05-06T23:38:40.801Z,100.00
2023-05-06T23:41:28.712Z,100.00
2023-05-06T23:44:15.651Z,100.00
2023-05-06T23:47:02.597Z,100.00
2023-05-06T23:49:49.444Z,100.00
2023-05-06T23:52:38.249Z,100.00
2023-05-06T23:55:28.165Z,100.00
2023-05-06T23:58:15.176Z,100.00
